Tiempo atmosférico en la estación meteorológica de Jerez De Los Caballeros, Badajoz (381 m.)



Fecha
DESCASC
Temp. máxima en grados centígrados (hora)
DESCASC
Temp. mínima en grados centígrados (hora)
DESCASC
Temp. media en grados centígrados
DESCASC
Racha de viento máxima en m/sg (hora)
DESCASC
Velocidad máxima media en intervalos de 10 minutos(hora)
DESCASC
Precipitaciones diarias en mm
DESCASC
Precipitaciones de 00:00 a 06:00 en mm
DESCASC
Precipitaciones de 06:00 a 12:00 en mm
DESCASC
Precipitaciones de 12:00 a 18:00 en mm
DESCASC
Precipitaciones de 18:00 a 24:00 en mm
DESCASC
16-06-2019 31.2 (17:20) 11.3 (08:00) 21.3 11.67 (18:40) 7.78 (18:50) 0 0 0 0 0
15-06-2019 27.2 (19:00) 9.4 (07:40) 18.3 8.06 (17:50) 5 (17:20) 0 0 0 0 0
14-06-2019 22.4 (17:00) 8.8 (07:00) 15.6 14.44 (13:40) 9.17 (18:00) 0 0 0 0 0
13-06-2019 26.4 (18:00) 8.4 (00:00) 17.4 13.06 (16:40) 9.17 (20:10) 0 0 0 0 0
12-06-2019 29.2 (17:20) 12.6 (00:00) 20.9 10.83 (22:40) 7.78 (23:00) 0 0 0 0 0
11-06-2019 25.7 (18:20) 10 (00:00) 17.9 12.78 (15:50) 7.22 (15:50) 0 0 0 0 0
10-06-2019 27.5 (19:00) 10.8 (00:00) 19.2 12.5 (22:40) 8.89 (23:00) 0 0 0 0 0
09-06-2019 26.4 (17:00) 9.1 (00:00) 17.8 13.89 (18:20) 8.61 (18:50) 0 0 0 0 0
08-06-2019 29.3 (16:40) 10.5 (00:00) 19.9 11.11 (19:30) 7.5 (22:30) 0 0 0 0 0
07-06-2019 23.3 (19:40) 9.9 (00:00) 16.6 13.89 (00:30) 10.28 (01:00) 0 0 0 0 0
06-06-2019 23.7 (18:20) 7.6 (00:00) 15.7 -- (--) -- (--) 0 0 0 0 0
05-06-2019 22.9 (17:50) 10.4 (00:00) 16.6 -- (--) -- (--) 0 0 0 0 0
04-06-2019 26.2 (18:20) 15.4 (00:00) 20.8 -- (--) -- (--) 0 0 0 0 0
03-06-2019 34.1 (16:20) 17.3 (00:00) 25.7 -- (--) -- (--) 0 0 0 0 0
02-06-2019 36.3 (19:10) 16.2 (00:00) 26.3 10 (21:50) 6.39 (22:10) 0 0 0 0 0
01-06-2019 36.1 (19:20) 15.2 (00:00) 25.6 10.56 (17:00) 6.39 (16:20) 0 0 0 0 0
31-05-2019 34.4 (17:50) 14.8 (00:00) 24.6 15 (14:50) 8.61 (14:00) 0 0 0 0 0
30-05-2019 33.6 (17:30) 20.1 (00:00) 26.8 12.5 (12:10) 9.17 (12:50) 0 0 0 0 0
29-05-2019 31.4 (16:40) 19 (00:00) 25.2 16.39 (09:40) 13.61 (09:50) 0 0 0 0 0
28-05-2019 32.6 (18:50) 13.7 (00:00) 23.1 10.28 (17:20) 6.67 (23:00) 0 0 0 0 0
27-05-2019 33.1 (16:30) 15 (00:00) 24 11.67 (18:00) 8.33 (22:40) 0 0 0 0 0
26-05-2019 30.7 (18:10) 14.1 (00:00) 22.4 11.39 (17:00) 6.11 (15:50) 0 0 0 0 0
25-05-2019 28 (19:10) 15.9 (00:00) 21.9 13.89 (00:50) 9.44 (01:40) 0 0 0 0 0
24-05-2019 28.2 (17:30) 10.1 (00:00) 19.2 13.33 (23:00) 9.17 (23:20) 0 0 0 0 0
23-05-2019 29 (15:50) 13.6 (00:00) 21.3 11.67 (16:40) 7.78 (23:00) 0 0 0 0 0
22-05-2019 30.3 (18:10) 10.6 (00:00) 20.4 -- (--) -- (--) 0 0 0 0 0
21-05-2019 26.4 (17:30) 9.7 (07:00) 18 -- (--) -- (--) 0 0 0 0 0

Gráficas

Temp. máximas Temp. mínimas Temp. medias Precipitaciones Rachas de viento máximas Velocidades máximas media en intervalos de 10 minutos

Datos horarios

Fecha y hora oficial Temperatura (ºC) Velocidad del viento (km/h) Dirección del viento Racha (km/h) Dirección de racha Precipitación (mm) Presión (hPa) Tendencia (hPa) Humedad (%)
2019-06-19 23:00:00 20.5 16 Oeste 23 Oeste 0 971.6 0.5 58
2019-06-19 22:00:00 22.3 18 Oeste 26 Oeste 0 971.1 -0.1 52
2019-06-19 21:00:00 24.5 18 Oeste 27 Oeste 0 971.1 -0.2 43
2019-06-19 20:00:00 25.2 20 Oeste 27 Oeste 0 971.1 -0.8 41
2019-06-19 19:00:00 25.4 16 Oeste 32 Sudoeste 0 971.2 -1.2 41
2019-06-19 18:00:00 27.2 17 Sudoeste 31 Sudoeste 0 971.3 -1.4 33
2019-06-19 17:00:00 26.4 15 Oeste 30 Sudoeste 0 971.9 -1.3 36
2019-06-19 16:00:00 25.8 17 Oeste 31 Oeste 0 972.4 -1 37
2019-06-19 15:00:00 24.8 16 Oeste 28 Sudoeste 0 972.7 -0.5 40
2019-06-19 14:00:00 23.9 16 Sudoeste 27 Sudoeste 0 973.2 0.1 45
2019-06-19 13:00:00 23.4 15 Sudoeste 25 Sudoeste 0 973.4 0.2 46
2019-06-19 12:00:00 22.4 16 Sudoeste 26 Oeste 0 973.2 0.1 48
2019-06-19 11:00:00 20.8 10 Sudoeste 18 Oeste 0 973.1 0.3 59
2019-06-19 10:00:00 18.8 5 Sudeste 10 Sudeste 0 973.2 0.6 73
2019-06-19 09:00:00 17.4 0 Calma 6 Este 0 973.1 0.6 82
2019-06-19 08:00:00 16.5 3 Sudeste 9 Sudoeste 0 972.8 0.5 82
2019-06-19 07:00:00 16.2 6 Sur 12 Sudoeste 0 972.6 0.3 81
2019-06-19 06:00:00 15.9 5 Sudoeste 10 Sudoeste 0 972.5 0.2 80
2019-06-19 05:00:00 15.8 10 Sudoeste 23 Oeste 0 972.3 -0.3 79
2019-06-19 04:00:00 16.2 12 Sudoeste 17 Sudoeste 0 972.3 -0.3 77
2019-06-19 03:00:00 16.6 15 Sudoeste 24 Sudoeste 0 972.3 -0.2 73
2019-06-19 02:00:00 17.9 16 Sudoeste 30 Sudoeste 0 972.6 0.6 67
2019-06-19 01:00:00 19.5 24 Sudoeste 32 Sudoeste 0 972.6 1.1 61
2019-06-19 00:00:00 20.4 23 Sudoeste 31 Sudoeste 0 972.5 1.2 57
2019-06-18 23:00:00 20.3 11 Sudoeste 21 Sudoeste 0 972 1 58
2019-06-18 22:00:00 21.8 19 Sudoeste 35 Sudoeste 0 971.5 0.5 52
2019-06-18 21:00:00 23.3 26 Sudoeste 38 Sudoeste 0 971.3 0 48
2019-06-18 20:00:00 25.2 24 Sudoeste 41 Sudoeste 0 971 -0.3 41
2019-06-18 19:00:00 25.6 26 Sudoeste 43 Sudoeste 0 971 -0.3 42
2019-06-18 18:00:00 24.7 28 Sudoeste 44 Sudoeste 0 971.3 -0.2 46
2019-06-18 17:00:00 23.9 23 Sudoeste 47 Sudoeste 0 971.3 -0.7 49
2019-06-18 16:00:00 25.3 28 Sudoeste 49 Sudoeste 0 971.3 -0.6 43
2019-06-18 15:00:00 25.2 28 Sudoeste 46 Sudoeste 0 971.5 -0.4 42
2019-06-18 14:00:00 24.7 26 Sudoeste 46 Sudoeste 0 972 0 47
2019-06-18 13:00:00 24.1 27 Sudoeste 43 Sudoeste 0 971.9 -0.3 45
2019-06-18 12:00:00 21.9 23 Sudoeste 37 Sur 0 971.9 0 51
2019-06-18 11:00:00 19.9 15 Sudoeste 29 Sudoeste 0 972 0.6 55
2019-06-18 10:00:00 17.9 17 Sudoeste 25 Sudoeste 0 972.2 1.1 54
2019-06-18 09:00:00 16.1 5 Sudoeste 8 Nordeste 0 971.9 1 62
2019-06-18 08:00:00 13.4 3 Este 8 Sudoeste 0 971.4 1 67
2019-06-18 07:00:00 11.7 6 Sudoeste 12 Sudoeste 0 971.1 0.5 73
2019-06-18 06:00:00 12.3 7 Oeste 15 Oeste 0 970.9 0 71
2019-06-18 05:00:00 13.6 11 Oeste 17 Sudoeste 0 970.4 -0.6 66
2019-06-18 04:00:00 14.9 11 Sudoeste 19 Sudoeste 0 970.6 -0.5 61
2019-06-18 03:00:00 16.8 15 Oeste 23 Sudoeste 0 970.9 0.1 55
2019-06-18 02:00:00 19 19 Sudoeste 25 Sudoeste 0 971 0.4 43
2019-06-18 01:00:00 20.9 17 Sudoeste 33 Oeste 0 971.1 0.8 23
2019-06-18 00:00:00 22 11 Sudoeste 19 Sudoeste 0 970.8 0.7 21
2019-06-17 23:00:00 23.4 7 Sudoeste 18 Sudoeste 0 970.6 0.6 20
2019-06-17 22:00:00 24.8 12 Sudoeste 31 Sur 0 970.3 0.6 18
2019-06-17 21:00:00 26.5 19 Sudoeste 33 Sudoeste 0 970.1 0.3 16
2019-06-17 20:00:00 29.5 25 Sudoeste 37 Sudoeste 0 970 -0.4 13
2019-06-17 19:00:00 30.2 29 Sudoeste 42 Sudoeste 0 969.7 -1.1 13
2019-06-17 18:00:00 30.4 26 Sudoeste 46 Sudoeste 0 969.8 -1.6 15
2019-06-17 17:00:00 30.7 19 Sur 36 Sur 0 970.4 -1.5 14
2019-06-17 16:00:00 30.6 22 Sudoeste 37 Sudoeste 0 970.8 -1.6 13
2019-06-17 15:00:00 29.4 19 Sudoeste 33 Sudoeste 0 971.4 -1.3 14
2019-06-17 14:00:00 28.7 22 Sudoeste 33 Sudoeste 0 971.9 -1.3 14
2019-06-17 13:00:00 27.2 18 Sudoeste 29 Sur 0 972.4 -1.3 17
2019-06-17 12:00:00 25 6 Sudeste 22 Sudoeste 0 972.7 -0.8 22
2019-06-17 11:00:00 23.4 8 Sudoeste 14 Sudoeste 0 973.2 0 26
2019-06-17 10:00:00 20 2 Oeste 13 Sudeste 0 973.7 0.5 42
2019-06-17 09:00:00 15.8 7 Este 10 Este 0 973.5 0.2 56
2019-06-17 08:00:00 13.7 5 Este 15 Este 0 973.2 -0.3 61
2019-06-17 07:00:00 11.9 6 Este 13 Este 0 973.2 -0.6 70
2019-06-17 06:00:00 12.7 7 Este 8 Este 0 973.3 -0.6 66
2019-06-17 05:00:00 14.9 0 Calma 12 Noroeste 0 973.5 -0.7 59
2019-06-17 04:00:00 15.4 9 Oeste 14 Oeste 0 973.8 -0.4 58
2019-06-17 03:00:00 16.3 12 Oeste 18 Sudoeste 0 973.9 -0.2 53
2019-06-17 02:00:00 17.8 13 Sudoeste 26 Sudoeste 0 974.2 0.6 48
2019-06-17 01:00:00 19.4 21 Sudoeste 29 Sudoeste 0 974.2 1.4 42
2019-06-17 00:00:00 21 13 Sudoeste 28 Sudoeste 0 974.1 2.1 31
2019-06-16 23:00:00 22.3 17 Sudoeste 26 Sudoeste 0 973.6 2 27
2019-06-16 22:00:00 24.5 18 Sudoeste 34 Sudoeste 0 972.8 1.3 27
2019-06-16 21:00:00 27.8 27 Sudoeste 38 Oeste 0 972 0.5 19
2019-06-16 20:00:00 30.4 21 Sudoeste 42 Oeste 0 971.6 -0.1 17
2019-06-16 19:00:00 30.6 25 Sudoeste 42 Sudoeste 0 971.5 -0.5 16
2019-06-16 18:00:00 30.9 16 Sudoeste 41 Oeste 0 971.5 -0.9 15
2019-06-16 17:00:00 30.4 10 Sudeste 40 Sudoeste 0 971.7 -1.5 15
2019-06-16 16:00:00 31 13 Sudoeste 31 Sudoeste 0 972 -1.3 14
2019-06-16 15:00:00 29.6 14 Oeste 29 Noroeste 0 972.4 -1.1 17
2019-06-16 14:00:00 28.4 11 Sudoeste 18 Sudoeste 0 973.2 -0.7 21
2019-06-16 13:00:00 26.4 7 Sudoeste 19 Este 0 973.3 -0.7 23
2019-06-16 12:00:00 25.3 13 Este 22 Nordeste 0 973.5 -0.2 25
2019-06-16 11:00:00 20.6 7 Nordeste 12 Este 0 973.9 0.2 39
2019-06-16 10:00:00 16.7 2 Oeste 6 Nordeste 0 974 0.5 48
2019-06-16 09:00:00 13.8 4 Este 10 Este 0 973.7 0.4 55
2019-06-16 08:00:00 11.4 7 Este 9 Sudeste 0 973.7 0.5 67
2019-06-16 07:00:00 11.9 6 Este 8 Este 0 973.5 0.2 56
2019-06-16 06:00:00 13.2 3 Sudoeste 9 Sudoeste 0 973.3 -0.2 55
2019-06-16 05:00:00 13.7 7 Sudoeste 9 Sudoeste 0 973.2 -0.6 51
2019-06-16 04:00:00 14.4 8 Sudoeste 9 Sudoeste 0 973.3 -0.9 45
2019-06-16 03:00:00 15 2 Sudeste 10 Sudoeste 0 973.5 -0.8 46
2019-06-16 02:00:00 17 4 Sudoeste 9 Este 0 973.8 -0.3 38
2019-06-16 01:00:00 18 7 Este 10 Este 0 974.2 0.5 34
2019-06-16 00:00:00 19.8 8 Este 15 Norte 0 974.3 0.7 30
2019-06-15 23:00:00 21.9 13 Norte 18 Noroeste 0 974.1 0.5 25
2019-06-15 22:00:00 22.6 11 Noroeste 18 Noroeste 0 973.7 0.2 24
2019-06-15 21:00:00 25.3 13 Oeste 24 Oeste 0 973.6 -0.2 21
2019-06-15 20:00:00 26.6 14 Oeste 28 Oeste 0 973.6 -0.7 19
2019-06-15 19:00:00 26.9 12 Oeste 26 Oeste 0 973.5 -1.3 19
2019-06-15 18:00:00 26.6 11 Oeste 29 Sudoeste 0 973.8 -1.4 20
2019-06-15 17:00:00 25.9 17 Sudoeste 28 Sudoeste 0 974.3 -1.4 21
2019-06-15 16:00:00 25.4 10 Oeste 27 Sudoeste 0 974.8 -1.4 21
2019-06-15 15:00:00 24.2 9 Noroeste 22 Noroeste 0 975.2 -1.1 25
2019-06-15 14:00:00 23.1 6 Sudoeste 22 Nordeste 0 975.7 -1 28
2019-06-15 13:00:00 21.3 9 Oeste 21 Sur 0 976.2 -0.6 32
2019-06-15 12:00:00 20.3 5 Oeste 18 Noroeste 0 976.3 -0.1 39
2019-06-15 11:00:00 18 5 Oeste 12 Oeste 0 976.7 0.6 48
2019-06-15 10:00:00 16.1 4 Sur 8 Este 0 976.8 1 55
2019-06-15 09:00:00 13.8 3 Este 7 Este 0 976.4 0.8 65
2019-06-15 08:00:00 10.4 3 Sudeste 8 Nordeste 0 976.1 0.5 77
2019-06-15 07:00:00 9.9 3 Nordeste 5 Nordeste 0 975.8 0.1 77
2019-06-15 06:00:00 10.7 3 Sudeste 4 Sudeste 0 975.6 -0.2 74
2019-06-15 05:00:00 11.3 0 Calma 8 Sudoeste 0 975.6 -0.2 74
2019-06-15 04:00:00 11.8 6 Sudoeste 8 Sudoeste 0 975.7 -0.1 67
2019-06-15 03:00:00 12.4 5 Oeste 14 Oeste 0 975.8 0.4 65
2019-06-15 02:00:00 13.2 15 Oeste 23 Sudoeste 0 975.8 1.1 61
2019-06-15 01:00:00 13.9 13 Oeste 18 Oeste 0 975.8 1.7 56
2019-06-15 00:00:00 14.7 10 Oeste 21 Oeste 0 975.4 1.9 53
2019-06-14 23:00:00 16 14 Oeste 23 Noroeste 0 974.7 1.9 48
2019-06-14 22:00:00 17.4 15 Oeste 35 Oeste 0 974.1 1.7 43
2019-06-14 21:00:00 19.4 22 Oeste 40 Oeste 0 973.5 1.1 38
2019-06-14 20:00:00 20.7 19 Oeste 39 Sudoeste 0 972.8 0.5 32
2019-06-14 19:00:00 21.7 27 Oeste 39 Oeste 0 972.4 -0.1 30
2019-06-14 18:00:00 21.7 33 Sudoeste 45 Oeste 0 972.4 -0.2 28
2019-06-14 17:00:00 22.4 30 Sudoeste 46 Sudoeste 0 972.3 -0.4 27
2019-06-14 16:00:00 21.4 22 Oeste 47 Oeste 0 972.5 -0.3 29
2019-06-14 15:00:00 19.8 27 Oeste 44 Sudoeste 0 972.6 0.2 32
2019-06-14 14:00:00 18.9 24 Oeste 52 Oeste 0 972.7 0.8 35
2019-06-14 13:00:00 17.8 20 Oeste 40 Sudoeste 0 972.8 1.3 40
2019-06-14 12:00:00 18.4 21 Oeste 40 Oeste 0 972.4 1.2 39
2019-06-14 11:00:00 15.7 17 Oeste 34 Oeste 0 971.9 1.3 50
2019-06-14 10:00:00 14.1 10 Oeste 20 Sudoeste 0 971.5 1.4 60
2019-06-14 09:00:00 11.9 6 Sudoeste 13 Sudoeste 0 971.2 1.7 69
2019-06-14 08:00:00 10.5 6 Sudoeste 13 Oeste 0 970.6 1.5 73
2019-06-14 07:00:00 8.8 9 Oeste 13 Oeste 0 970.1 0.8 75
2019-06-14 06:00:00 9.7 10 Sudoeste 13 Sudoeste 0 969.5 0.2 71
2019-06-14 05:00:00 10.6 6 Oeste 8 Sudoeste 0 969.1 -0.4 67
2019-06-14 04:00:00 11.1 8 Oeste 13 Oeste 0 969.3 0.3 64
2019-06-14 03:00:00 12.3 8 Oeste 18 Oeste 0 969.3 1.1 59
2019-06-14 02:00:00 13.5 12 Oeste 20 Oeste 0 969.5 2.1 54
2019-06-14 01:00:00 15 13 Sudoeste 31 Oeste 0 969 2.1 49
2019-06-14 00:00:00 17 22 Oeste 41 Oeste 0 968.2 2 42
2019-06-13 23:00:00 19 23 Oeste 32 Oeste 0 967.4 1.9 30
2019-06-13 22:00:00 21.4 18 Oeste 28 Oeste 0 966.9 1.4 23
2019-06-13 21:00:00 23.2 22 Oeste 42 Sudoeste 0 966.2 0.7 21
2019-06-13 20:00:00 24.8 27 Oeste 40 Sudoeste 0 965.5 -0.2 18
2019-06-13 19:00:00 24.5 31 Oeste 46 Sudoeste 0 965.5 -0.3 19
2019-06-13 18:00:00 25.9 28 Oeste 44 Sudoeste 0 965.5 -0.7 18
2019-06-13 17:00:00 25.3 23 Oeste 47 Sudoeste 0 965.7 -1 19
2019-06-13 16:00:00 25.6 25 Sudoeste 43 Sudoeste 0 965.8 -1.2 20
2019-06-13 15:00:00 24.2 24 Sudoeste 35 Oeste 0 966.2 -1.3 23
2019-06-13 14:00:00 22.9 18 Sudoeste 32 Sudoeste 0 966.7 -0.9 26
2019-06-13 13:00:00 21.5 17 Oeste 26 Oeste 0 967 -0.8 27
2019-06-13 12:00:00 19.3 10 Sudoeste 22 Sudoeste 0 967.5 -0.2 33
2019-06-13 11:00:00 16.5 9 Sudoeste 21 Sudoeste 0 967.6 0.2 43
2019-06-13 10:00:00 13.3 9 Sudoeste 13 Sudoeste 0 967.8 0.6 58
2019-06-13 09:00:00 11.4 6 Sudoeste 9 Sudoeste 0 967.7 0.6 65
2019-06-13 08:00:00 10.3 3 Sur 12 Sudoeste 0 967.4 0.5 67
2019-06-13 07:00:00 8.6 11 Sudoeste 15 Sudoeste 0 967.2 0.2 72
2019-06-13 06:00:00 9.1 11 Sudoeste 16 Sudoeste 0 967.1 -0.2 67
2019-06-13 05:00:00 10.2 12 Oeste 17 Oeste 0 966.9 -0.7 58
2019-06-13 04:00:00 11.8 14 Oeste 19 Oeste 0 967 -0.7 49
2019-06-13 03:00:00 12.3 13 Oeste 20 Oeste 0 967.3 0.2 48
2019-06-13 02:00:00 14 8 Oeste 18 Oeste 0 967.6 1.4 44
2019-06-13 01:00:00 15.8 14 Oeste 23 Sudoeste 0 967.7 2.1 41
2019-06-13 00:00:00 18.2 8 Oeste 38 Oeste 0 967.1 1.9 35
2019-06-12 23:00:00 20.2 28 Oeste 39 Oeste 0 966.2 1.1 25
2019-06-12 22:00:00 22.7 21 Oeste 35 Oeste 0 965.6 0.3 14
2019-06-12 21:00:00 26 25 Oeste 35 Sudoeste 0 965.2 -0.6 12
2019-06-12 20:00:00 27.8 23 Oeste 35 Oeste 0 965.1 -1 12
2019-06-12 19:00:00 28.2 21 Oeste 38 Oeste 0 965.3 -1.5 11
2019-06-12 18:00:00 28.6 13 Oeste 36 Sudoeste 0 965.8 -1.6 10
2019-06-12 17:00:00 28.9 18 Sudoeste 39 Sudoeste 0 966.1 -1.7 10
2019-06-12 16:00:00 27.9 23 Sudoeste 37 Sudoeste 0 966.8 -1.6 11
2019-06-12 15:00:00 27.2 15 Oeste 33 Oeste 0 967.4 -1.4 12
2019-06-12 14:00:00 26.7 12 Sur 33 Sudoeste 0 967.8 -1.3 13
2019-06-12 13:00:00 26.2 7 Noroeste 17 Este 0 968.4 -0.8 13
2019-06-12 12:00:00 23.9 4 Este 12 Nordeste 0 968.8 -0.2 15
2019-06-12 11:00:00 21.8 6 Nordeste 18 Nordeste 0 969.1 0.6 17
2019-06-12 10:00:00 18.4 7 Este 12 Sudeste 0 969.2 0.9 23
2019-06-12 09:00:00 16.5 5 Este 9 Este 0 969 0.9 29
2019-06-12 08:00:00 13.9 4 Este 10 Este 0 968.5 0.3 32
2019-06-12 07:00:00 12.8 7 Este 11 Sudeste 0 968.3 0 31
2019-06-12 06:00:00 14.3 4 Sur 33 Norte 0 968.1 -0.3 27
2019-06-12 05:00:00 16.1 6 Sudeste 15 Nordeste 0 968.2 -0.8 24
2019-06-12 04:00:00 15.9 5 Sur 12 Sudeste 0 968.3 -0.8 23
2019-06-12 03:00:00 17 6 Este 10 Nordeste 0 968.4 -0.6 21
2019-06-12 02:00:00 17.5 4 Sudeste 17 Norte 0 969 0.1 20
2019-06-12 01:00:00 18.5 6 Nordeste 27 Norte 0 969.1 0.7 19
2019-06-12 00:00:00 20.1 18 Norte 28 Norte 0 969 0.9 16
2019-06-11 23:00:00 20.6 17 Norte 25 Norte 0 968.9 1.2 16
2019-06-11 22:00:00 21.6 15 Norte 31 Norte 0 968.4 0.7 17
2019-06-11 21:00:00 23.6 18 Norte 31 Norte 0 968.1 0.3 18
2019-06-11 20:00:00 24.9 18 Noroeste 37 Norte 0 967.7 -0.2 17
2019-06-11 19:00:00 25.2 21 Norte 39 Norte 0 967.7 -0.7 13
2019-06-11 18:00:00 25.4 18 Norte 37 Norte 0 967.8 -0.9 14
2019-06-11 17:00:00 24.8 20 Norte 41 Norte 0 967.9 -1 20
2019-06-11 16:00:00 24.7 22 Noroeste 46 Norte 0 968.4 -0.6 21
2019-06-11 15:00:00 24.4 21 Norte 41 Oeste 0 968.7 -0.5 23
2019-06-11 14:00:00 23.3 21 Noroeste 39 Noroeste 0 968.9 -0.8 29
2019-06-11 13:00:00 22 23 Norte 45 Noroeste 0 969 -0.8 34
2019-06-11 12:00:00 20.6 23 Norte 34 Norte 0 969.2 -0.4 39
2019-06-11 11:00:00 18.7 13 Oeste 22 Noroeste 0 969.7 0.2 45
2019-06-11 10:00:00 16.2 10 Oeste 20 Oeste 0 969.8 0 53
2019-06-11 09:00:00 13.6 14 Oeste 25 Oeste 0 969.6 -0.3 62
2019-06-11 08:00:00 11.3 13 Oeste 21 Oeste 0 969.5 -0.9 69
2019-06-11 07:00:00 10.2 12 Sudoeste 20 Sudoeste 0 969.8 -1.1 71
2019-06-11 06:00:00 10.5 10 Sudoeste 13 Sudoeste 0 969.9 -1.3 67
2019-06-11 05:00:00 11.4 11 Oeste 18 Oeste 0 970.4 -1.2 62
2019-06-11 04:00:00 12.3 15 Oeste 26 Oeste 0 970.9 -1.1 58
2019-06-11 03:00:00 13.3 18 Oeste 24 Oeste 0 971.2 -0.6 55
2019-06-11 02:00:00 14.3 17 Oeste 32 Oeste 0 971.6 0.1 50
2019-06-11 01:00:00 15.6 17 Oeste 28 Oeste 0 972 1.2 40
2019-06-11 00:00:00 17.4 22 Oeste 45 Noroeste 0 971.8 1.2 32
2019-06-10 23:00:00 19.4 32 Oeste 45 Noroeste 0 971.5 1 30
2019-06-10 22:00:00 22 19 Oeste 34 Oeste 0 970.8 0.1 27
2019-06-10 21:00:00 24.6 24 Oeste 37 Oeste 0 970.6 -0.6 21
2019-06-10 20:00:00 26.5 27 Oeste 39 Oeste 0 970.5 -1.1 19
2019-06-10 19:00:00 27.1 23 Oeste 37 Oeste 0 970.7 -1.4 18
2019-06-10 18:00:00 27.1 22 Oeste 37 Oeste 0 971.2 -1.6 17
2019-06-10 17:00:00 27 24 Oeste 37 Oeste 0 971.6 -1.9 20
2019-06-10 16:00:00 25.7 10 Noroeste 31 Oeste 0 972.1 -1.7 21
2019-06-10 15:00:00 25.5 18 Oeste 30 Noroeste 0 972.8 -1.5 23
2019-06-10 14:00:00 24.3 13 Noroeste 34 Noroeste 0 973.5 -1.1 27
2019-06-10 13:00:00 22.7 6 Noroeste 25 Noroeste 0 973.8 -0.8 32
2019-06-10 12:00:00 21.5 12 Oeste 31 Oeste 0 974.3 -0.3 39
2019-06-10 11:00:00 18.5 9 Sur 18 Sudoeste 0 974.6 0.4 51
2019-06-10 10:00:00 15.8 9 Sur 14 Sudoeste 0 974.6 0.3 63
2019-06-10 09:00:00 13.9 7 Sudoeste 13 Sudoeste 0 974.6 0.5 71
2019-06-10 08:00:00 12.1 4 Sur 13 Sudoeste 0 974.2 -0.2 76
2019-06-10 07:00:00 10.9 7 Sudoeste 10 Sudoeste 0 974.3 -0.8 81
2019-06-10 06:00:00 11.6 9 Sudoeste 15 Sudoeste 0 974.1 -1.2 78
2019-06-10 05:00:00 12.1 11 Sudoeste 22 Sudoeste 0 974.4 -1.1 74
2019-06-10 04:00:00 13.2 14 Sudoeste 22 Sudoeste 0 975.1 -0.4 71
2019-06-10 03:00:00 14.1 10 Sudoeste 22 Sudoeste 0 975.3 -0.2 65
2019-06-10 02:00:00 15.2 14 Oeste 26 Oeste 0 975.5 0.5 60
2019-06-10 01:00:00 16.3 17 Oeste 24 Oeste 0 975.5 1.4 54
2019-06-10 00:00:00 17.6 17 Oeste 29 Oeste 0 975.5 2 47
2019-06-09 23:00:00 19 20 Oeste 35 Oeste 0 975 1.6 40
2019-06-09 22:00:00 20.8 22 Oeste 42 Oeste 0 974.1 1 33
2019-06-09 21:00:00 23.1 27 Oeste 41 Oeste 0 973.5 0.5 29
2019-06-09 20:00:00 24.4 31 Oeste 46 Sudoeste 0 973.4 0.2 28
2019-06-09 19:00:00 24.6 28 Oeste 50 Sudoeste 0 973.1 -0.5 26
2019-06-09 18:00:00 26.1 26 Sudoeste 42 Sudoeste 0 973 -1.3 22
2019-06-09 17:00:00 26 28 Sudoeste 41 Sudoeste 0 973.2 -1.5 21
2019-06-09 16:00:00 26.3 21 Oeste 39 Sudoeste 0 973.6 -1.3 21
2019-06-09 15:00:00 24.3 21 Oeste 35 Sudoeste 0 974.3 -0.9 22
2019-06-09 14:00:00 23.2 20 Sudoeste 37 Oeste 0 974.7 -0.6 23
2019-06-09 13:00:00 21.4 19 Sudoeste 34 Sudoeste 0 974.9 -0.5 27
2019-06-09 12:00:00 19.8 18 Oeste 31 Sudoeste 0 975.2 -0.3 30
2019-06-09 11:00:00 18.1 18 Oeste 28 Sudoeste 0 975.3 0.1 29
2019-06-09 10:00:00 14.7 10 Sudoeste 19 Sudoeste 0 975.4 0.7 44
2019-06-09 09:00:00 12.2 11 Sudoeste 16 Sudoeste 0 975.5 1.1 57
2019-06-09 08:00:00 9.7 11 Sudoeste 16 Sudoeste 0 975.2 0.9 63
2019-06-09 07:00:00 9.5 8 Sudoeste 13 Sudoeste 0 974.7 0.1 58
2019-06-09 06:00:00 11 6 Oeste 9 Oeste 0 974.4 -0.6 53
2019-06-09 05:00:00 12.1 4 Oeste 9 Oeste 0 974.3 -0.9 52
2019-06-09 04:00:00 12.8 9 Oeste 15 Oeste 0 974.6 -0.4 47
2019-06-09 03:00:00 13.4 9 Noroeste 19 Noroeste 0 975 0.4 48
2019-06-09 02:00:00 14.9 9 Oeste 33 Oeste 0 975.2 1.7 49
2019-06-09 01:00:00 16.5 17 Oeste 27 Oeste 0 975 2.4 48
2019-06-09 00:00:00 18.5 10 Oeste 39 Noroeste 0 974.6 2.4 42
2019-06-08 23:00:00 20.6 25 Noroeste 37 Noroeste 0 973.5 1.8 35
2019-06-08 22:00:00 23.4 16 Oeste 30 Oeste 0 972.6 1.1 18
2019-06-08 21:00:00 25.2 20 Oeste 34 Sudoeste 0 972.2 0.4 14
2019-06-08 20:00:00 27.7 24 Sudoeste 40 Oeste 0 971.7 -0.5 13
2019-06-08 19:00:00 29.1 24 Oeste 39 Sudoeste 0 971.5 -1.2 13
2019-06-08 18:00:00 28.9 18 Sudoeste 38 Oeste 0 971.8 -1.5 13
2019-06-08 17:00:00 29.1 14 Oeste 35 Oeste 0 972.2 -1.6 13
2019-06-08 16:00:00 28.3 19 Sudoeste 34 Sur 0 972.7 -1.5 13
2019-06-08 15:00:00 27.9 17 Sudoeste 39 Sudoeste 0 973.3 -1.1 14
2019-06-08 14:00:00 26.3 9 Sudoeste 21 Sur 0 973.8 -0.7 17
2019-06-08 13:00:00 24.8 11 Sudoeste 20 Oeste 0 974.2 -0.5 19
2019-06-08 12:00:00 22.1 7 Norte 21 Este 0 974.4 -0.4 24
2019-06-08 11:00:00 20.7 13 Este 20 Este 0 974.5 -0.4 30
2019-06-08 10:00:00 17.3 11 Este 16 Este 0 974.7 -0.1 40
2019-06-08 09:00:00 14.1 5 Este 12 Este 0 974.8 0.1 53
2019-06-08 08:00:00 11.5 4 Este 9 Este 0 974.9 0.2 62
2019-06-08 07:00:00 10.9 4 Este 8 Este 0 974.8 -0.3 62
2019-06-08 06:00:00 10.6 6 Este 9 Sudeste 0 974.7 -0.5 62
2019-06-08 05:00:00 12.8 8 Sudeste 16 Norte 0 974.7 -0.8 54
2019-06-08 04:00:00 14.4 4 Sudeste 8 Sur 0 975.1 -0.5 49
2019-06-08 03:00:00 14.1 4 Sudoeste 9 Sudeste 0 975.2 -0.5 47
2019-06-08 02:00:00 14.7 2 Sur 10 Este 0 975.5 0.3 45
2019-06-08 01:00:00 15.5 6 Sudeste 14 Norte 0 975.6 0.9 40
2019-06-08 00:00:00 16.5 4 Nordeste 23 Noroeste 0 975.7 1.3 35
2019-06-07 23:00:00 18.7 17 Noroeste 23 Noroeste 0 975.2 0.9 29
2019-06-07 22:00:00 19.3 14 Noroeste 23 Noroeste 0 974.7 0.6 28
2019-06-07 21:00:00 21.5 14 Noroeste 29 Noroeste 0 974.4 0.3 25
2019-06-07 20:00:00 22.6 10 Noroeste 33 Noroeste 0 974.3 0 22
2019-06-07 19:00:00 22.3 14 Norte 30 Norte 0 974.1 -0.2 22
2019-06-07 18:00:00 22.2 14 Noroeste 25 Norte 0 974.1 -0.4 22
2019-06-07 17:00:00 22.4 9 Noroeste 32 Norte 0 974.3 -0.3 23
2019-06-07 16:00:00 21 13 Nordeste 28 Nordeste 0 974.3 -0.3 26
2019-06-07 15:00:00 20.1 14 Oeste 32 Oeste 0 974.5 0.1 28
2019-06-07 14:00:00 19.6 8 Noroeste 31 Norte 0 974.6 0.3 30
2019-06-07 13:00:00 17.7 18 Noroeste 36 Noroeste 0 974.6 0.5 34
2019-06-07 12:00:00 17.1 14 Noroeste 30 Noroeste 0 974.4 0.9 40
2019-06-07 11:00:00 15.3 19 Noroeste 35 Noroeste 0 974.3 1.5 46
2019-06-07 10:00:00 14.1 14 Oeste 22 Noroeste 0 974.1 2.1 60
2019-06-07 09:00:00 12.7 8 Oeste 15 Oeste 0 973.5 1.9 75
2019-06-07 08:00:00 11 7 Oeste 20 Oeste 0 972.8 1.6 87
2019-06-07 07:00:00 10 12 Oeste 18 Oeste 0 972 1 89
2019-06-07 06:00:00 10.6 11 Oeste 17 Oeste 0 971.6 0.7 87
2019-06-07 05:00:00 11.4 10 Oeste 17 Sudoeste 0 971.2 1.1 87
2019-06-07 04:00:00 11.9 9 Sudoeste 18 Sudoeste 0 971 1.7 88
2019-06-07 03:00:00 11.8 15 Sudoeste 31 Oeste 0 970.9 2.1 89
2019-06-07 02:00:00 11.9 22 Oeste 47 Oeste 0 970.1 1.6 88
2019-06-07 01:00:00 15.6 37 Sudoeste 50 Sudoeste 0 969.3 1.3 77
2019-06-07 00:00:00 17 31 Sudoeste 51 Sudoeste 0 968.8 1.2 61
2019-06-06 23:00:00 17.6 31 Sudoeste 51 Sudoeste 0 968.5 1.5 57
2019-06-06 22:00:00 18.1 32 Sudoeste 46 Oeste 0 968 1.1 54
2019-06-06 21:00:00 19.6 32 Sudoeste 55 Sudoeste 0 967.6 0.4 46
2019-06-06 20:00:00 21.7 37 Oeste 58 Oeste 0 967 -0.9 36
2019-06-06 19:00:00 23.3 35 Sudoeste 50 Sudoeste 0 966.9 -1.6 30
2019-06-06 18:00:00 23.1 30 Sudoeste 59 Sudoeste 0 967.2 -1.8 30
2019-06-06 17:00:00 23.2 29 Sudoeste 50 Sudoeste 0 967.9 -1.5 28
2019-06-06 16:00:00 23.3 24 Sudoeste 41 Sudoeste 0 968.5 -1.4 23
2019-06-06 15:00:00 22.6 24 Sudoeste 37 Sudoeste 0 969 -1.1 23
2019-06-06 14:00:00 21.2 19 Sudoeste 33 Oeste 0 969.4 -1.1 26
2019-06-06 13:00:00 20.2 18 Sudoeste 29 Sudoeste 0 969.9 -0.9 31
2019-06-06 12:00:00 18.3 10 Sur -- -- 0 970.1 -1.1 36
2019-06-06 11:00:00 16.4 6 Sudeste 18 Sudeste 0 970.5 -0.8 43
2019-06-06 10:00:00 14.1 -- -- -- -- 0 970.8 -0.7 52
2019-06-06 09:00:00 12.2 3 Este -- -- 0 971.2 -0.3 58
2019-06-06 08:00:00 8.8 3 Nordeste 8 Este 0 971.3 -0.4 69
2019-06-06 07:00:00 9 3 Nordeste -- -- 0 971.5 -0.5 68
2019-06-06 06:00:00 9.4 0 Calma -- -- 0 971.5 -0.9 65
2019-06-06 05:00:00 10.1 -- -- -- -- 0 971.7 -0.8 62
2019-06-06 04:00:00 10.8 -- -- -- -- 0 972 -0.5 59
2019-06-06 03:00:00 11.5 6 Sudoeste 12 Oeste 0 972.4 0.2 56
2019-06-06 02:00:00 12.6 9 Sudoeste 21 Oeste 0 972.5 0.7 51
2019-06-06 01:00:00 13.5 13 Oeste 23 Oeste 0 972.5 1.2 47
2019-06-06 00:00:00 14.9 15 Oeste 28 Oeste 0 972.2 1.3 38
2019-06-05 23:00:00 16.2 19 Oeste 27 Oeste 0 971.8 1.1 31
2019-06-05 22:00:00 18 17 Oeste 30 Oeste 0 971.3 0.5 30
2019-06-05 21:00:00 20.5 19 Oeste 32 Oeste 0 970.9 -0.2 23
2019-06-05 20:00:00 21.4 23 Oeste 37 Oeste 0 970.7 -0.8 25
2019-06-05 19:00:00 22.2 14 Oeste 35 Noroeste 0 970.8 -1.3 26
2019-06-05 18:00:00 21.6 21 Oeste 45 Oeste 0 971.1 -1.3 27
2019-06-05 17:00:00 21.9 22 Oeste 42 Oeste 0 971.5 -1.5 27
2019-06-05 16:00:00 20.6 21 Oeste 39 Oeste 0 972.1 -1.1 30
2019-06-05 15:00:00 19.4 23 Oeste 42 Oeste 0 972.4 -0.7 33
2019-06-05 14:00:00 19.4 19 Oeste 39 Oeste 0 973 0 35
2019-06-05 13:00:00 19 24 Oeste 43 Oeste 0 973.2 0 36
2019-06-05 12:00:00 17.4 19 Oeste 43 Oeste 0 973.1 0.4 45
2019-06-05 11:00:00 15.7 26 Oeste 39 Oeste 0 973 1 51
2019-06-05 10:00:00 13.7 26 Oeste -- -- 0 973.2 1.6 65
2019-06-05 09:00:00 12.9 22 Oeste 40 Oeste 0 972.7 1.3 71
2019-06-05 08:00:00 11.6 18 Oeste 25 Oeste 0 972 1 80
2019-06-05 07:00:00 11.2 15 Oeste -- -- 0 971.6 0.5 81
2019-06-05 06:00:00 11.1 6 Oeste -- -- 0 971.4 0.4 79
2019-06-05 05:00:00 10.8 -- -- -- -- 0 971 -0.1 76
2019-06-05 04:00:00 11.7 12 Oeste -- -- 0 971.1 0.6 71
2019-06-05 03:00:00 12.3 19 Oeste -- -- 0 971 1 68
2019-06-05 02:00:00 13.3 -- -- -- -- 0 971.1 1.9 62
2019-06-05 01:00:00 14.9 -- -- -- -- 0 970.5 1.9 51
2019-06-05 00:00:00 16.3 -- -- -- -- 0 970 1.6 51
2019-06-04 23:00:00 17.7 15 Sudoeste -- -- 0 969.2 1.1 53
2019-06-04 22:00:00 18.9 -- -- -- -- 0 968.6 0.7 56
2019-06-04 21:00:00 19.4 -- -- -- -- 0 968.4 0.7 53
2019-06-04 20:00:00 19.5 -- -- -- -- 0 968.1 -0.4 58
2019-06-04 19:00:00 22.2 -- -- -- -- 0 967.9 -1.1 54
2019-06-04 18:00:00 25.5 -- -- -- -- 0 967.7 -1.7 33
2019-06-04 17:00:00 25.8 -- -- -- -- 0 968.5 -1.4 37
2019-06-04 16:00:00 25.9 -- -- -- -- 0 969 -1.4 36
2019-06-04 15:00:00 25.3 -- -- -- -- 0 969.4 -1.3 38
2019-06-04 14:00:00 24.6 21 Sudoeste 37 Oeste 0 969.9 -0.9 41
2019-06-04 13:00:00 23.1 17 Oeste -- -- 0 970.4 -0.9 45
2019-06-04 12:00:00 21.4 14 Oeste 27 Oeste 0 970.7 -0.5 49
2019-06-04 11:00:00 20.4 14 Oeste -- -- 0 970.8 0.1 53
2019-06-04 10:00:00 18.1 13 Oeste -- -- 0 971.3 1 64
2019-06-04 09:00:00 17 13 Oeste -- -- 0 971.2 1.2 69
2019-06-04 08:00:00 15.7 11 Oeste 15 Oeste 0 970.7 0.6 81
2019-06-04 07:00:00 15.7 13 Oeste 17 Noroeste 0 970.3 0.1 82
2019-06-04 06:00:00 15.8 9 Sudoeste 15 Sudoeste 0 970 -0.7 77
2019-06-04 05:00:00 15.5 5 Sudoeste -- -- 0 970.1 -1.1 73
2019-06-04 04:00:00 16.5 -- -- -- -- 0 970.2 -1.2 63
2019-06-04 03:00:00 17.7 11 Sudoeste 15 Sudoeste 0 970.7 -0.8 53
2019-06-04 02:00:00 19 -- -- -- -- 0 971.2 0.1 52
2019-06-04 01:00:00 20.5 -- -- -- -- 0 971.4 1.1 39
2019-06-04 00:00:00 22.3 -- -- -- -- 0 971.5 1.7 36
2019-06-03 23:00:00 24.5 -- -- -- -- 0 971.1 1.2 29
2019-06-03 22:00:00 26.5 -- -- -- -- 0 970.3 0.1 21
2019-06-03 21:00:00 29.5 -- -- -- -- 0 969.8 -0.8 17
2019-06-03 20:00:00 31.9 -- -- -- -- 0 969.9 -0.8 14
2019-06-03 19:00:00 33.4 -- -- -- -- 0 970.2 -1.2 12
2019-06-03 18:00:00 34 -- -- -- -- 0 970.6 -1.4 11
2019-06-03 17:00:00 33.8 24 Oeste -- -- 0 970.7 -2 11
2019-06-03 16:00:00 33.5 -- -- -- -- 0 971.4 -1.7 11
2019-06-03 15:00:00 33.5 18 Sudoeste 30 Oeste 0 972 -1.3 11
2019-06-03 14:00:00 32.3 19 Oeste 30 Sudoeste 0 972.7 -0.9 12
2019-06-03 13:00:00 31.3 14 Oeste 23 Oeste 0 973.1 -0.7 13
2019-06-03 12:00:00 29.5 9 Sudoeste 17 Sur 0 973.3 -0.5 19
2019-06-03 11:00:00 26 3 Sudoeste 8 Sur 0 973.6 0.1 25
2019-06-03 10:00:00 22.1 4 Este 8 Nordeste 0 973.8 0.6 34
2019-06-03 09:00:00 18.2 5 Este 8 Este 0 973.8 0.8 46
2019-06-03 08:00:00 17.7 4 Sudeste 5 Sudeste 0 973.5 0.4 46
2019-06-03 07:00:00 17.6 4 Este 8 Nordeste 0 973.2 0.2 43
2019-06-03 06:00:00 18.3 5 Nordeste 8 Oeste 0 973 -0.4 38
2019-06-03 05:00:00 19.7 3 Noroeste 9 Este 0 973.1 -0.6 36
2019-06-03 04:00:00 20.1 4 Norte 19 Noroeste 0 973 -0.9 34
2019-06-03 03:00:00 22.3 11 Noroeste 19 Noroeste 0 973.4 -0.3 28
2019-06-03 02:00:00 23.1 14 Noroeste 22 Oeste 0 973.7 0.7 26
2019-06-03 01:00:00 24.5 12 Oeste 15 Oeste 0 973.9 2.2 26
2019-06-03 00:00:00 25.5 13 Oeste 21 Oeste 0 973.7 2.7 25
2019-06-02 23:00:00 27.6 9 Sur 34 Noroeste 0 973 2.1 19
2019-06-02 22:00:00 29.4 20 Noroeste 36 Noroeste 0 971.7 0.7 17
2019-06-02 21:00:00 32.5 20 Oeste 26 Oeste 0 971 -0.2 14
2019-06-02 20:00:00 35 13 Oeste 24 Oeste 0 970.9 -0.6 12
2019-06-02 19:00:00 35.8 8 Noroeste 23 Noroeste 0 971 -0.9 12
2019-06-02 18:00:00 35.8 11 Sudoeste 23 Sur 0 971.2 -1.5 12
2019-06-02 17:00:00 35.8 6 Sudoeste 24 Sur 0 971.5 -2 13
2019-06-02 16:00:00 34.9 8 Oeste 23 Sudoeste 0 971.9 -2.1 13
2019-06-02 15:00:00 33.8 5 Oeste 23 Sudoeste 0 972.7 -1.4 13
2019-06-02 14:00:00 32.7 9 Sudoeste 21 Sudoeste 0 973.5 -0.8 17
2019-06-02 13:00:00 30.9 10 Sudoeste 18 Sudoeste 0 974 -0.4 19
2019-06-02 12:00:00 28.7 8 Sudoeste 18 Sudoeste 0 974.1 -0.1 22
2019-06-02 11:00:00 26.6 7 Sudoeste 17 Sudoeste 0 974.3 0.3 25
2019-06-02 10:00:00 23.3 3 Noroeste 10 Este 0 974.4 0.7 31
2019-06-02 09:00:00 20.6 2 Sur 6 Nordeste 0 974.2 0.8 44
2019-06-02 08:00:00 17.9 4 Este 9 Este 0 974 0.9 49
2019-06-02 07:00:00 16.3 5 Sudeste 9 Sudeste 0 973.7 0.7 53
2019-06-02 06:00:00 17.6 4 Este 9 Este 0 973.4 0.2 48
2019-06-02 05:00:00 19.9 3 Nordeste 8 Este 0 973.1 -0.2 38
2019-06-02 04:00:00 21.4 3 Noroeste 12 Oeste 0 973 -0.5 34
2019-06-02 03:00:00 22.2 4 Oeste 10 Sudoeste 0 973.2 -0.4 31
2019-06-02 02:00:00 23 7 Oeste 19 Oeste 0 973.3 0.3 29
2019-06-02 01:00:00 24.7 14 Oeste 28 Oeste 0 973.5 1.3 26
2019-06-02 00:00:00 25.9 20 Oeste 28 Oeste 0 973.6 2.1 24
2019-06-01 23:00:00 27.4 13 Oeste 22 Sudoeste 0 973 1.6 23
2019-06-01 22:00:00 30.5 6 Sudoeste 15 Norte 0 972.2 0.6 16
2019-06-01 21:00:00 34.1 7 Norte 12 Norte 0 971.5 -0.4 12
2019-06-01 20:00:00 35.5 3 Este 18 Norte 0 971.4 -0.9 10
2019-06-01 19:00:00 35.1 10 Norte 28 Nordeste 0 971.6 -1.4 10
2019-06-01 18:00:00 34.8 18 Este 35 Este 0 971.9 -1.6 11
2019-06-01 17:00:00 34.3 21 Nordeste 38 Nordeste 0 972.3 -1.9 12
2019-06-01 16:00:00 34.1 15 Este 36 Este 0 973 -1.8 12
2019-06-01 15:00:00 34.4 9 Nordeste 35 Nordeste 0 973.5 -1.5 13
2019-06-01 14:00:00 32.4 16 Nordeste 34 Este 0 974.2 -0.9 13
2019-06-01 13:00:00 31.7 19 Nordeste 30 Nordeste 0 974.8 -0.6 16
2019-06-01 12:00:00 30.2 16 Nordeste 27 Este 0 975 -0.2 18
2019-06-01 11:00:00 27.7 6 Este 19 Este 0 975.1 0 23
2019-06-01 10:00:00 22.9 6 Este 14 Sudeste 0 975.4 0.6 33
2019-06-01 09:00:00 18.3 7 Este 12 Este 0 975.2 0.5 47
2019-06-01 08:00:00 17.3 2 Sudoeste 12 Nordeste 0 975.1 0.4 47
2019-06-01 07:00:00 15.2 7 Este 12 Este 0 974.8 0.1 52
2019-06-01 06:00:00 17.1 4 Este 8 Este 0 974.7 0 44
2019-06-01 05:00:00 17 6 Nordeste 10 Oeste 0 974.7 0.1 48
2019-06-01 04:00:00 20 8 Oeste 15 Oeste 0 974.7 0.1 35
2019-06-01 03:00:00 21.3 10 Oeste 12 Oeste 0 974.7 0.2 31
2019-06-01 02:00:00 23.3 5 Sudeste 12 Sudeste 0 974.6 0.6 29
2019-06-01 01:00:00 25.8 5 Sudoeste 8 Oeste 0 974.6 1.5 23
2019-06-01 00:00:00 26.6 6 Sudoeste 9 Sudoeste 0 974.5 1.8 23
2019-05-31 23:00:00 27.9 7 Sudoeste 20 Este 0 974 1.4 20
2019-05-31 22:00:00 30 19 Norte 31 Norte 0 973.1 0.4 16
2019-05-31 21:00:00 31.8 20 Nordeste 28 Este 0 972.7 -0.5 14
2019-05-31 20:00:00 33.5 19 Nordeste 38 Este 0 972.6 -1 11
2019-05-31 19:00:00 33.8 22 Nordeste 41 Nordeste 0 972.7 -1.5 11
2019-05-31 18:00:00 34.1 21 Nordeste 42 Este 0 973.2 -1.4 12
2019-05-31 17:00:00 33.6 13 Este 44 Este 0 973.6 -1.6 12
2019-05-31 16:00:00 33.1 23 Este 45 Este 0 974.2 -1.6 13
2019-05-31 15:00:00 32.6 24 Este 54 Nordeste 0 974.6 -1.4 14
2019-05-31 14:00:00 31.3 31 Este 49 Este 0 975.2 -1.2 16
2019-05-31 13:00:00 30.3 22 Este 40 Nordeste 0 975.8 -0.9 18
2019-05-31 12:00:00 28.7 22 Este 33 Este 0 976 -0.5 19
2019-05-31 11:00:00 25.9 21 Este 33 Nordeste 0 976.4 -0.1 25
2019-05-31 10:00:00 23.2 15 Este 24 Este 0 976.7 0.4 30
2019-05-31 09:00:00 18.9 15 Este 20 Este 0 976.5 0.4 46
2019-05-31 08:00:00 15.5 9 Este 14 Este 0 976.5 0.5 60
2019-05-31 07:00:00 14.9 2 Sur 7 Sudeste 0 976.3 0.3 60
2019-05-31 06:00:00 16 4 Este 10 Este 0 976.1 -0.1 55
2019-05-31 05:00:00 17.1 7 Este 9 Este 0 976 -0.3 48
2019-05-31 04:00:00 18.8 3 Sudoeste 7 Nordeste 0 976 -0.2 46
2019-05-31 03:00:00 20.7 5 Oeste 12 Oeste 0 976.2 -0.1 41
2019-05-31 02:00:00 22.4 4 Norte 11 Noroeste 0 976.3 0.6 33
2019-05-31 01:00:00 24.5 4 Sudoeste 8 Sudoeste 0 976.2 1.6 28
2019-05-31 00:00:00 25.9 5 Oeste 11 Nordeste 0 976.3 2.2 23
2019-05-30 23:00:00 26.8 9 Este 34 Norte 0 975.7 1.9 19
2019-05-30 22:00:00 28.9 23 Norte 34 Norte 0 974.6 0.6 15
2019-05-30 21:00:00 31 22 Norte 32 Norte 0 974.1 -0.4 13
2019-05-30 20:00:00 32.6 21 Nordeste 37 Nordeste 0 973.8 -0.9 11
2019-05-30 19:00:00 33.1 23 Nordeste 37 Nordeste 0 974 -1.1 10
2019-05-30 18:00:00 33.2 26 Nordeste 38 Nordeste 0 974.5 -1.2 10
2019-05-30 17:00:00 33.3 23 Nordeste 39 Este 0 974.7 -1.6 11
2019-05-30 16:00:00 32.6 27 Nordeste 41 Nordeste 0 975.1 -1.5 11
2019-05-30 15:00:00 31.8 27 Este 41 Este 0 975.7 -1 12
2019-05-30 14:00:00 30.5 29 Este 43 Este 0 976.3 -0.8 14
2019-05-30 13:00:00 29.5 31 Este 45 Nordeste 0 976.6 -0.4 16
2019-05-30 12:00:00 28.3 28 Nordeste 40 Nordeste 0 976.7 0 18
2019-05-30 11:00:00 26.6 26 Nordeste 35 Nordeste 0 977.1 0.6 21
2019-05-30 10:00:00 24.3 25 Nordeste 35 Este 0 977 0.9 25
2019-05-30 09:00:00 22 25 Nordeste 37 Nordeste 0 976.7 1.1 27
2019-05-30 08:00:00 21.1 22 Nordeste 32 Nordeste 0 976.5 1.2 27
2019-05-30 07:00:00 20.4 24 Nordeste 37 Nordeste 0 976.1 0.7 27
2019-05-30 06:00:00 21.3 27 Nordeste 33 Nordeste 0 975.6 0.3 26
2019-05-30 05:00:00 21 13 Nordeste 28 Nordeste 0 975.3 -0.2 26
2019-05-30 04:00:00 22.1 22 Nordeste 33 Nordeste 0 975.4 0 23
2019-05-30 03:00:00 23.1 27 Nordeste 37 Nordeste 0 975.3 0.1 21
2019-05-30 02:00:00 22.1 24 Este 38 Nordeste 0 975.5 0.8 24
2019-05-30 01:00:00 25.3 27 Nordeste 34 Nordeste 0 975.4 1.5 19
2019-05-30 00:00:00 25.9 27 Nordeste 33 Nordeste 0 975.2 1.5 19
2019-05-29 23:00:00 26.8 28 Nordeste 36 Nordeste 0 974.7 1.5 18
2019-05-29 22:00:00 27.3 26 Nordeste 33 Nordeste 0 973.9 0.7 18
2019-05-29 21:00:00 29.2 22 Nordeste 39 Nordeste 0 973.7 0.1 15
2019-05-29 20:00:00 30.4 27 Nordeste 40 Nordeste 0 973.2 -0.4 14
2019-05-29 19:00:00 30.6 30 Nordeste 44 Nordeste 0 973.2 -0.8 13
2019-05-29 18:00:00 31.1 23 Nordeste 45 Nordeste 0 973.6 -0.5 13
2019-05-29 17:00:00 30.9 27 Nordeste 39 Nordeste 0 973.6 -0.8 14
2019-05-29 16:00:00 30.3 28 Nordeste 44 Nordeste 0 974 -0.7 14
2019-05-29 15:00:00 29.7 27 Nordeste 45 Este 0 974.1 -0.4 15
2019-05-29 14:00:00 29.1 27 Nordeste 46 Nordeste 0 974.4 -0.3 16
2019-05-29 13:00:00 28.1 32 Nordeste 54 Nordeste 0 974.7 0.6 17
2019-05-29 12:00:00 26.6 37 Nordeste 51 Este 0 974.5 0.6 19
2019-05-29 11:00:00 25 37 Este 57 Nordeste 0 974.7 1.1 22
2019-05-29 10:00:00 23 42 Nordeste 59 Nordeste 0 974.1 1.5 25
2019-05-29 09:00:00 21.1 41 Nordeste 53 Nordeste 0 973.9 1.9 27
2019-05-29 08:00:00 19.6 27 Este 53 Nordeste 0 973.6 1.6 28
2019-05-29 07:00:00 20 37 Nordeste 50 Nordeste 0 972.6 1 27
2019-05-29 06:00:00 20.4 34 Nordeste 46 Nordeste 0 972 0.5 26
2019-05-29 05:00:00 19.1 21 Este 27 Este 0 972 0.2 31
2019-05-29 04:00:00 19.7 18 Este 24 Nordeste 0 971.6 -0.1 30
2019-05-29 03:00:00 20.4 14 Nordeste 22 Nordeste 0 971.5 0.2 28
2019-05-29 02:00:00 22.2 7 Este 31 Norte 0 971.8 1 24
2019-05-29 01:00:00 24.4 20 Norte 32 Norte 0 971.7 1.5 21
2019-05-29 00:00:00 25.1 24 Norte 30 Norte 0 971.3 1.7 19
2019-05-28 23:00:00 26.1 24 Norte 30 Norte 0 970.8 1.9 17
2019-05-28 22:00:00 27.6 20 Norte 31 Norte 0 970.2 1.3 15
2019-05-28 21:00:00 29.6 17 Norte 34 Norte 0 969.6 0.6 15
2019-05-28 20:00:00 31.4 20 Norte 30 Norte 0 968.9 -0.3 17
2019-05-28 19:00:00 32 21 Norte 32 Norte 0 968.9 -0.3 18
2019-05-28 18:00:00 32.2 19 Norte 37 Norte 0 969 -0.5 18
2019-05-28 17:00:00 32.3 17 Nordeste 30 Norte 0 969.2 -0.4 18
2019-05-28 16:00:00 31.4 15 Norte 37 Nordeste 0 969.2 -0.6 20
2019-05-28 15:00:00 31.3 13 Nordeste 34 Nordeste 0 969.5 -0.3 21
2019-05-28 14:00:00 30.2 14 Norte 33 Norte 0 969.6 -0.1 20
2019-05-28 13:00:00 29.5 8 Oeste 23 Oeste 0 969.8 0.2 30
2019-05-28 12:00:00 25.9 8 Oeste 17 Oeste 0 969.8 0.4 41
2019-05-28 11:00:00 22.6 5 Sudoeste 10 Sudoeste 0 969.7 0.4 51
2019-05-28 10:00:00 20 3 Nordeste 9 Nordeste 0 969.6 0.8 61
2019-05-28 09:00:00 17.7 3 Sudeste 8 Este 0 969.4 0.6 67
2019-05-28 08:00:00 15.5 0 Calma 8 Sudoeste 0 969.3 0.6 77
2019-05-28 07:00:00 13.7 7 Sudoeste 10 Sudoeste 0 968.8 -0.1 82
2019-05-28 06:00:00 14.2 5 Sudoeste 13 Oeste 0 968.8 -0.2 80
2019-05-28 05:00:00 15.1 8 Oeste 13 Oeste 0 968.7 -0.5 77
2019-05-28 04:00:00 15.7 11 Sudoeste 15 Sudoeste 0 968.9 -0.5 74
2019-05-28 03:00:00 16.5 10 Oeste 18 Oeste 0 969 -0.3 70
2019-05-28 02:00:00 17.7 15 Sudoeste 28 Sudoeste 0 969.2 0.4 65
2019-05-28 01:00:00 19.1 16 Sudoeste 23 Sudoeste 0 969.4 1.3 59
2019-05-28 00:00:00 20.3 15 Oeste 32 Oeste 0 969.3 1.5 51
2019-05-27 23:00:00 22.9 24 Oeste 39 Oeste 0 968.8 1.4 39
2019-05-27 22:00:00 25 23 Oeste 35 Oeste 0 968.1 0.7 32
2019-05-27 21:00:00 27.9 26 Oeste 39 Oeste 0 967.8 0.2 28
2019-05-27 20:00:00 30.5 26 Oeste 39 Oeste 0 967.4 -0.6 24
2019-05-27 19:00:00 31.9 27 Oeste 40 Oeste 0 967.4 -1 20
2019-05-27 18:00:00 32.5 23 Oeste 42 Oeste 0 967.6 -1.4 18
2019-05-27 17:00:00 32.2 24 Oeste 40 Oeste 0 968 -1.6 18
2019-05-27 16:00:00 32.3 15 Oeste 35 Oeste 0 968.4 -1.6 16
2019-05-27 15:00:00 32 19 Oeste 36 Sudoeste 0 969 -1.3 14
2019-05-27 14:00:00 31.3 21 Oeste 34 Oeste 0 969.6 -1 20
2019-05-27 13:00:00 30.5 9 Oeste 21 Sudoeste 0 970 -0.9 23
2019-05-27 12:00:00 28.6 11 Sur 18 Sudoeste 0 970.3 -0.6 27
2019-05-27 11:00:00 25.1 5 Oeste 12 Oeste 0 970.6 0 31
2019-05-27 10:00:00 20.8 4 Sur 9 Sudoeste 0 970.9 0.8 44
2019-05-27 09:00:00 17.8 4 Nordeste 9 Sudoeste 0 970.9 0.8 49
2019-05-27 08:00:00 16.2 4 Este 8 Este 0 970.6 0.4 51
2019-05-27 07:00:00 16.6 3 Nordeste 6 Este 0 970.1 -0.4 44
2019-05-27 06:00:00 16.4 2 Nordeste 7 Este 0 970.1 -0.7 44
2019-05-27 05:00:00 17.2 6 Sudoeste 12 Sudoeste 0 970.2 -0.9 40
2019-05-27 04:00:00 18.6 6 Sudoeste 12 Sudoeste 0 970.5 -0.8 37
2019-05-27 03:00:00 19.3 10 Sudoeste 13 Sudoeste 0 970.8 -0.6 34
2019-05-27 02:00:00 21 5 Sudoeste 20 Norte 0 971.1 -0.1 30
2019-05-27 01:00:00 23.1 5 Nordeste 32 Norte 0 971.3 0.7 25
2019-05-27 00:00:00 25.9 20 Norte 27 Norte 0 971.4 0.9 21
2019-05-26 23:00:00 26 18 Norte 24 Norte 0 971.2 0.9 20
2019-05-26 22:00:00 27.1 14 Norte 24 Norte 0 970.6 0.1 19
2019-05-26 21:00:00 29 17 Norte 35 Norte 0 970.5 -0.4 17
2019-05-26 20:00:00 30.2 21 Norte 38 Norte 0 970.3 -1.1 17
2019-05-26 19:00:00 30.3 22 Norte 33 Norte 0 970.5 -1.3 17
2019-05-26 18:00:00 30.2 16 Norte 38 Norte 0 970.9 -1.4 18
2019-05-26 17:00:00 30.1 18 Norte 41 Norte 0 971.4 -1.7 19
2019-05-26 16:00:00 29.4 10 Norte 33 Norte 0 971.8 -1.6 19
2019-05-26 15:00:00 28.6 12 Nordeste 29 Norte 0 972.3 -1.4 21
2019-05-26 14:00:00 27.9 15 Nordeste 30 Norte 0 973.1 -0.8 22
2019-05-26 13:00:00 27.1 10 Este 32 Nordeste 0 973.4 -0.7 23
2019-05-26 12:00:00 26.1 17 Nordeste 32 Este 0 973.7 -0.4 24
2019-05-26 11:00:00 24.9 12 Este 24 Este 0 973.9 0.1 26
2019-05-26 10:00:00 22 8 Este 14 Este 0 974.1 0.8 31
2019-05-26 09:00:00 18.8 8 Este 12 Este 0 974.1 1.2 38
2019-05-26 08:00:00 15.9 6 Este 14 Nordeste 0 973.8 0.7 46
2019-05-26 07:00:00 16.1 13 Nordeste 15 Nordeste 0 973.3 0.1 43
2019-05-26 06:00:00 15.2 9 Este 11 Este 0 972.9 -0.3 47
2019-05-26 05:00:00 16.3 10 Este 12 Este 0 973.1 -0.2 42
2019-05-26 04:00:00 18.1 7 Este 11 Este 0 973.2 -0.3 34
2019-05-26 03:00:00 19.6 5 Sudeste 12 Este 0 973.2 -0.3 30
2019-05-26 02:00:00 19.8 7 Este 13 Este 0 973.3 0.2 30
2019-05-26 01:00:00 19.6 6 Este 13 Sudeste 0 973.5 1 30
2019-05-26 00:00:00 21 10 Nordeste 29 Norte 0 973.5 1.3 29
2019-05-25 23:00:00 23.4 20 Norte 24 Norte 0 973.1 1.3 22
2019-05-25 22:00:00 24.5 15 Noroeste 20 Norte 0 972.5 0.6 22
2019-05-25 21:00:00 26.1 16 Norte 30 Norte 0 972.2 0.2 19
2019-05-25 20:00:00 27.3 17 Norte 31 Norte 0 971.8 -0.2 19
2019-05-25 19:00:00 27.5 16 Nordeste 35 Nordeste 0 971.9 -0.4 16
2019-05-25 18:00:00 27 23 Norte 42 Nordeste 0 972 -0.9 13
2019-05-25 17:00:00 26.9 17 Nordeste 35 Nordeste 0 972 -1.2 18
2019-05-25 16:00:00 26.9 16 Nordeste 36 Nordeste 0 972.3 -1 19
2019-05-25 15:00:00 26.3 15 Este 35 Nordeste 0 972.9 -0.1 22
2019-05-25 14:00:00 25.1 23 Nordeste 37 Nordeste 0 973.2 0.1 23
2019-05-25 13:00:00 24.5 21 Nordeste 46 Nordeste 0 973.3 0.2 24
2019-05-25 12:00:00 23.8 24 Nordeste 41 Nordeste 0 973 0.6 29
2019-05-25 11:00:00 22.5 24 Este 39 Nordeste 0 973.1 1 36
2019-05-25 10:00:00 20.7 23 Este 31 Nordeste 0 973.1 1.6 38
2019-05-25 09:00:00 19.4 21 Nordeste 26 Este 0 972.4 1.3 38
2019-05-25 08:00:00 17.3 14 Nordeste 18 Nordeste 0 972.1 1.3 43
2019-05-25 07:00:00 16.3 16 Nordeste 25 Nordeste 0 971.5 0.9 42
2019-05-25 06:00:00 17.7 18 Nordeste 25 Nordeste 0 971.1 1.1 37
2019-05-25 05:00:00 18.6 6 Este 14 Sudeste 0 970.8 0.9 33
2019-05-25 04:00:00 19.8 8 Este 35 Norte 0 970.6 0.9 30
2019-05-25 03:00:00 21.2 29 Norte 48 Norte 0 970 0.2 26
2019-05-25 02:00:00 21.8 30 Norte 49 Norte 0 969.9 0.5 25
2019-05-25 01:00:00 22.4 33 Norte 50 Norte 0 969.7 0.9 24
2019-05-25 00:00:00 23 31 Norte 47 Norte 0 969.8 1.4 22
2019-05-24 23:00:00 23.7 32 Norte 48 Norte 0 969.4 1.4 21
2019-05-24 22:00:00 24.1 23 Norte 32 Norte 0 968.8 0.8 20
2019-05-24 21:00:00 25.3 12 Noroeste 31 Norte 0 968.4 0.3 19
2019-05-24 20:00:00 26.7 20 Norte 35 Norte 0 968 -0.2 16
2019-05-24 19:00:00 27.5 20 Norte 40 Noroeste 0 968 -0.7 19
2019-05-24 18:00:00 27.6 24 Norte 44 Noroeste 0 968.1 -1.2 24
2019-05-24 17:00:00 28 19 Norte 37 Norte 0 968.2 -1.7 25
2019-05-24 16:00:00 27.1 20 Noroeste 43 Oeste 0 968.7 -1.7 25
2019-05-24 15:00:00 25.3 23 Noroeste 39 Noroeste 0 969.3 -1.4 25
2019-05-24 14:00:00 24.3 17 Noroeste 34 Norte 0 969.9 -1.3 29
2019-05-24 13:00:00 22.3 15 Oeste 31 Noroeste 0 970.4 -1.1 31
2019-05-24 12:00:00 20.4 16 Noroeste 30 Noroeste 0 970.7 -0.5 37
2019-05-24 11:00:00 18.2 17 Noroeste 32 Noroeste 0 971.2 -0.4 47
2019-05-24 10:00:00 15.1 9 Sudoeste 15 Sudoeste 0 971.5 0.2 65
2019-05-24 09:00:00 11.8 4 Oeste 11 Sudoeste 0 971.2 -0.2 77
2019-05-24 08:00:00 10.3 5 Sudoeste 10 Sudoeste 0 971.6 0.1 82
2019-05-24 07:00:00 10.3 8 Oeste 12 Oeste 0 971.3 -0.8 81
2019-05-24 06:00:00 10.6 9 Sudoeste 17 Oeste 0 971.4 -1 81
2019-05-24 05:00:00 11.2 9 Oeste 17 Sudoeste 0 971.5 -1.2 80
2019-05-24 04:00:00 12.3 9 Sudoeste 24 Oeste 0 972.1 -1.1 77
2019-05-24 03:00:00 13.7 14 Oeste 23 Oeste 0 972.4 -0.6 76
2019-05-24 02:00:00 14.9 9 Sudoeste 19 Oeste 0 972.7 0 75
2019-05-24 01:00:00 16.5 19 Oeste 31 Oeste 0 973.2 1 70
2019-05-24 00:00:00 18 25 Oeste 37 Noroeste 0 973 1.1 64
2019-05-23 23:00:00 19.7 28 Oeste 41 Oeste 0 972.7 0.9 58
2019-05-23 22:00:00 21.6 15 Oeste 30 Noroeste 0 972.2 0.3 34
2019-05-23 21:00:00 23.8 20 Oeste 32 Oeste 0 971.9 -0.2 27
2019-05-23 20:00:00 25.7 19 Oeste 37 Oeste 0 971.8 -0.5 24
2019-05-23 19:00:00 26.4 22 Oeste 32 Oeste 0 971.9 -0.6 23
2019-05-23 18:00:00 27.8 18 Oeste 35 Oeste 0 972.1 -0.9 20
2019-05-23 17:00:00 28.2 22 Oeste 42 Sudoeste 0 972.3 -1.2 15
2019-05-23 16:00:00 28.8 21 Oeste 40 Oeste 0 972.5 -1.5 19
2019-05-23 15:00:00 28.4 21 Oeste 39 Oeste 0 973 -1.3 22
2019-05-23 14:00:00 27.7 21 Sudoeste 36 Oeste 0 973.5 -0.8 23
2019-05-23 13:00:00 26.6 19 Sudoeste 29 Sudoeste 0 974 -0.1 30
2019-05-23 12:00:00 25.2 10 Sudoeste 22 Oeste 0 974.3 0.4 37
2019-05-23 11:00:00 22.8 5 Sudoeste 9 Sur 0 974.3 0.7 46
2019-05-23 10:00:00 18.8 6 Sudoeste 9 Sudoeste 0 974.1 0.7 63
2019-05-23 09:00:00 15.9 4 Este 9 Este 0 973.9 0.5 72
2019-05-23 08:00:00 14 5 Este 6 Este 0 973.6 0.3 78
2019-05-23 07:00:00 14.1 0 Calma 6 Nordeste 0 973.4 -0.2 77
2019-05-23 06:00:00 14.6 4 Nordeste 7 Nordeste 0 973.4 -0.4 76
2019-05-23 05:00:00 15.5 4 Este 11 Oeste 0 973.3 -0.4 73
2019-05-23 04:00:00 16.2 8 Sudoeste 17 Sudoeste 0 973.6 -0.2 69
2019-05-23 03:00:00 16.8 8 Sudoeste 17 Sudoeste 0 973.8 0.4 69
2019-05-23 02:00:00 17.7 15 Sudoeste 19 Sudoeste 0 973.7 0.9 67
2019-05-23 01:00:00 19.4 13 Sudoeste 24 Noroeste 0 973.8 1.8 59
2019-05-23 00:00:00 20.9 21 Oeste -- -- 0 973.4 1.9 43
2019-05-22 23:00:00 22 -- -- -- -- 0 972.8 1.7 35
2019-05-22 22:00:00 23.9 16 Oeste 23 Oeste 0 972 0.8 32
2019-05-22 21:00:00 27.2 17 Oeste -- -- 0 971.5 0.2 27
2019-05-22 20:00:00 29.3 -- -- -- -- 0 971.1 -0.6 23
2019-05-22 19:00:00 28.3 10 Noroeste 20 Oeste 0 971.2 -0.8 24
2019-05-22 18:00:00 30.2 13 Oeste 25 Oeste 0 971.3 -1.1 22
2019-05-22 17:00:00 28.9 12 Oeste -- -- 0 971.7 -1 24
2019-05-22 16:00:00 29.3 -- -- -- -- 0 972 -1 22
2019-05-22 15:00:00 28.7 -- -- -- -- 0 972.4 -0.7 25
2019-05-22 14:00:00 27.3 5 Oeste -- -- 0 972.7 -0.4 29
2019-05-22 13:00:00 26.4 -- -- -- -- 0 973 -0.1 31
2019-05-22 12:00:00 25 6 Este 15 Nordeste 0 973.1 0.5 36
2019-05-22 11:00:00 22.3 5 Este 13 Este 0 973.1 0.9 49
2019-05-22 10:00:00 18.6 5 Este 11 Este 0 973.1 1.3 62
2019-05-22 09:00:00 15.3 2 Nordeste 8 Este 0 972.6 0.7 73
2019-05-22 08:00:00 13 7 Nordeste 14 Nordeste 0 972.2 0.1 82
2019-05-22 07:00:00 10.6 8 Este 9 Este 0 971.8 -0.6 88
2019-05-22 06:00:00 11.8 6 Nordeste 6 Este 0 971.9 -0.4 84
2019-05-22 05:00:00 13.2 3 Sudoeste 8 Sudoeste 0 972.1 -0.5 78
2019-05-22 04:00:00 13.5 6 Oeste 11 Sudoeste 0 972.4 0 77
2019-05-22 03:00:00 14.5 4 Sur 15 Oeste 0 972.3 0.1 74
2019-05-22 02:00:00 15.3 10 Oeste 16 Sudoeste 0 972.6 1 71
2019-05-22 01:00:00 16.1 10 Sudoeste -- -- 0 972.4 1.6 67
2019-05-22 00:00:00 17.7 -- -- -- -- 0 972.2 1.8 61
2019-05-21 23:00:00 19.9 12 Oeste 20 Oeste 0 971.6 1.6 46
2019-05-21 22:00:00 21 15 Noroeste 20 Oeste 0 970.8 0.8 42
2019-05-21 21:00:00 23.3 17 Oeste 26 Oeste 0 970.4 0.3 35
2019-05-21 20:00:00 25.1 16 Oeste 27 Oeste 0 970 -0.5 31
2019-05-21 19:00:00 24 14 Noroeste -- -- 0 970 -0.8 32
2019-05-21 18:00:00 26 -- -- -- -- 0 970.1 -1 28
2019-05-21 17:00:00 24.7 -- -- -- -- 0 970.5 -0.9 30
2019-05-21 16:00:00 25.3 -- -- -- -- 0 970.8 -0.8 29
2019-05-21 15:00:00 24.1 13 Noroeste 29 Oeste 0 971.1 -0.8 33
2019-05-21 14:00:00 23.2 11 Sudoeste 28 Oeste 0 971.4 -0.6 37
2019-05-21 13:00:00 21.1 12 Sudoeste 25 Sudoeste 0 971.6 -0.3 44
2019-05-21 12:00:00 19.3 10 Oeste 20 Sudoeste 0 971.9 0.2 52
2019-05-21 11:00:00 17.1 13 Sudoeste 21 Oeste 0 972 0.6 61
2019-05-21 10:00:00 15 9 Sudoeste 16 Sudoeste 0 971.9 0.9 70
2019-05-21 09:00:00 12.5 8 Sudoeste 11 Sudoeste 0 971.7 0.8 78
2019-05-21 08:00:00 10.5 8 Oeste 10 Oeste 0 971.4 0.7 84
2019-05-21 07:00:00 9.7 7 Sudoeste 15 Sudoeste 0 971 0.3 85
2019-05-21 06:00:00 10.7 12 Sudoeste 18 Sudoeste 0 970.9 0.2 81
2019-05-21 05:00:00 11.3 9 Sudoeste 17 Sudoeste 0 970.7 -0.2 76
2019-05-21 04:00:00 11.9 9 Sudoeste 14 Sudoeste 0 970.7 -0.3 72
2019-05-21 03:00:00 13.3 11 Sudoeste 16 Sudoeste 0 970.7 0.1 65
2019-05-21 02:00:00 14.5 14 Oeste 31 Oeste 0 970.9 0.8 60
2019-05-21 01:00:00 15.5 17 Oeste 24 Sudoeste 0 971 1.8 55
2019-05-21 00:00:00 16.4 14 Oeste 22 Oeste 0 970.6 2.1 49